createdAt,value
2023-03-11T00:00:01.790Z,0.00
2023-03-11T00:00:31.982Z,0.00
2023-03-11T00:01:02.975Z,0.00
2023-03-11T00:01:33.819Z,0.00
2023-03-11T00:02:05.210Z,0.00
2023-03-11T00:02:35.889Z,0.00
2023-03-11T00:03:07.845Z,0.00
2023-03-11T00:03:38.153Z,0.00
2023-03-11T00:04:10.147Z,0.00
2023-03-11T00:04:39.998Z,0.00
2023-03-11T00:05:11.229Z,0.00
2023-03-11T00:05:42.166Z,0.00
2023-03-11T00:06:13.331Z,0.00
2023-03-11T00:06:43.748Z,0.00
2023-03-11T00:07:14.961Z,0.00
2023-03-11T00:07:46.316Z,0.00
2023-03-11T00:08:17.029Z,0.00
2023-03-11T00:08:47.938Z,0.00
2023-03-11T00:09:18.743Z,0.00
2023-03-11T00:09:50.171Z,0.00
2023-03-11T00:10:21.696Z,0.00
2023-03-11T00:10:52.038Z,0.00
2023-03-11T00:11:23.237Z,0.00
2023-03-11T00:11:54.071Z,0.00
2023-03-11T00:12:25.012Z,0.00
2023-03-11T00:12:56.091Z,0.00
2023-03-11T00:13:27.100Z,0.00
2023-03-11T00:13:58.159Z,0.00
2023-03-11T00:14:29.165Z,0.00
2023-03-11T00:15:00.341Z,0.00
2023-03-11T00:15:31.953Z,0.00
2023-03-11T00:16:01.880Z,0.00
2023-03-11T00:16:33.173Z,0.00
2023-03-11T00:17:04.072Z,0.00
2023-03-11T00:17:35.189Z,0.00
2023-03-11T00:18:05.832Z,0.00
2023-03-11T00:18:37.068Z,0.00
2023-03-11T00:19:08.235Z,0.00
2023-03-11T00:19:39.067Z,0.00
2023-03-11T00:20:11.450Z,0.00
2023-03-11T00:20:41.087Z,0.00
2023-03-11T00:21:12.052Z,0.00
2023-03-11T00:21:43.063Z,0.00
2023-03-11T00:22:14.227Z,0.00
2023-03-11T00:22:45.182Z,0.00
2023-03-11T00:23:15.822Z,0.00
2023-03-11T00:23:47.110Z,0.00
2023-03-11T00:24:17.977Z,0.00
2023-03-11T00:24:48.862Z,0.00
2023-03-11T00:25:20.628Z,0.00
2023-03-11T00:25:51.044Z,0.00
2023-03-11T00:26:22.045Z,0.00
2023-03-11T00:26:53.220Z,0.00
2023-03-11T00:27:24.411Z,0.00
2023-03-11T00:27:55.183Z,0.00
2023-03-11T00:28:26.243Z,0.00
2023-03-11T00:28:56.885Z,0.00
2023-03-11T00:29:28.134Z,0.00
2023-03-11T00:29:59.014Z,0.00
2023-03-11T00:30:31.053Z,0.00
2023-03-11T00:31:01.287Z,0.00
2023-03-11T00:31:31.893Z,0.00
2023-03-11T00:32:03.183Z,0.00
2023-03-11T00:32:34.114Z,0.00
2023-03-11T00:33:05.195Z,0.00
2023-03-11T00:33:36.070Z,0.00
2023-03-11T00:34:07.009Z,0.00
2023-03-11T00:34:39.386Z,0.00
2023-03-11T00:35:09.189Z,0.00
2023-03-11T00:35:40.324Z,0.00
2023-03-11T00:36:11.522Z,0.00
2023-03-11T00:36:42.075Z,0.00
2023-03-11T00:37:13.550Z,0.00
2023-03-11T00:37:44.200Z,0.00
2023-03-11T00:38:14.876Z,0.00
2023-03-11T00:38:45.893Z,0.00
2023-03-11T00:39:17.220Z,0.00
2023-03-11T00:39:48.254Z,0.00
2023-03-11T00:40:19.783Z,0.00
2023-03-11T00:40:50.128Z,0.00
2023-03-11T00:41:21.496Z,0.00
2023-03-11T00:41:51.891Z,0.00
2023-03-11T00:42:23.246Z,0.00
2023-03-11T00:42:54.139Z,0.00
2023-03-11T00:43:25.141Z,0.00
2023-03-11T00:43:56.261Z,0.00
2023-03-11T00:44:27.572Z,0.00
2023-03-11T00:44:57.887Z,0.00
2023-03-11T00:45:30.418Z,0.00
2023-03-11T00:46:00.016Z,0.00
2023-03-11T00:46:31.436Z,0.00
2023-03-11T00:47:02.180Z,0.00
2023-03-11T00:47:33.587Z,0.00
2023-03-11T00:48:04.275Z,0.00
2023-03-11T00:48:34.924Z,0.00
2023-03-11T00:49:05.934Z,0.00
2023-03-11T00:49:36.857Z,0.00
2023-03-11T00:50:08.579Z,0.00
2023-03-11T00:50:39.305Z,0.00
2023-03-11T00:51:10.245Z,0.00
2023-03-11T00:51:41.304Z,0.00
2023-03-11T00:52:12.113Z,0.00
2023-03-11T00:52:43.350Z,0.00
2023-03-11T00:53:14.116Z,0.00
2023-03-11T00:53:45.226Z,0.00
2023-03-11T00:54:15.939Z,0.00
2023-03-11T00:54:46.963Z,0.00
2023-03-11T00:55:18.485Z,0.00
2023-03-11T00:55:49.068Z,0.00
2023-03-11T00:56:20.078Z,0.00
2023-03-11T00:56:51.083Z,0.00
2023-03-11T00:57:22.058Z,0.00
2023-03-11T00:57:53.369Z,0.00
2023-03-11T00:58:23.961Z,0.00
2023-03-11T00:58:55.419Z,0.00
2023-03-11T00:59:26.318Z,0.00
2023-03-11T00:59:57.202Z,0.00
2023-03-11T01:00:29.158Z,0.00
2023-03-11T01:00:59.276Z,0.00
2023-03-11T01:01:30.395Z,0.00
2023-03-11T01:02:01.313Z,0.00
2023-03-11T01:02:32.008Z,0.00
2023-03-11T01:03:03.155Z,0.00
2023-03-11T01:03:34.127Z,0.00
2023-03-11T01:04:05.480Z,0.00
2023-03-11T01:04:36.610Z,0.00
2023-03-11T01:05:07.434Z,0.00
2023-03-11T01:05:38.113Z,0.00
2023-03-11T01:06:11.233Z,0.00
2023-03-11T01:06:45.581Z,0.00
2023-03-11T01:07:13.090Z,0.00
2023-03-11T01:07:42.048Z,0.00
2023-03-11T01:08:14.547Z,0.00
2023-03-11T01:08:44.370Z,0.00
2023-03-11T01:09:15.528Z,0.00
2023-03-11T01:09:45.933Z,0.00
2023-03-11T01:10:17.436Z,0.00
2023-03-11T01:10:47.985Z,0.00
2023-03-11T01:11:19.014Z,0.00
2023-03-11T01:11:50.003Z,0.00
2023-03-11T01:12:21.015Z,0.00
2023-03-11T01:12:51.970Z,0.00
2023-03-11T01:13:23.413Z,0.00
2023-03-11T01:13:54.068Z,0.00
2023-03-11T01:14:25.343Z,0.00
2023-03-11T01:14:56.037Z,0.00
2023-03-11T01:15:28.235Z,0.00
2023-03-11T01:15:58.263Z,0.00
2023-03-11T01:16:29.223Z,0.00
2023-03-11T01:17:00.017Z,0.00
2023-03-11T01:17:30.935Z,0.00
2023-03-11T01:18:01.958Z,0.00
2023-03-11T01:18:33.463Z,0.00
2023-03-11T01:19:03.936Z,0.00
2023-03-11T01:19:34.952Z,0.00
2023-03-11T01:20:06.467Z,0.00
2023-03-11T01:20:36.940Z,0.00
2023-03-11T01:21:08.178Z,0.00
2023-03-11T01:21:39.279Z,0.00
2023-03-11T01:22:10.354Z,0.00
2023-03-11T01:22:41.325Z,0.00
2023-03-11T01:23:12.204Z,0.00
2023-03-11T01:23:43.537Z,0.00
2023-03-11T01:24:14.308Z,0.00
2023-03-11T01:24:45.028Z,0.00
2023-03-11T01:25:16.481Z,0.00
2023-03-11T01:25:47.016Z,0.00
2023-03-11T01:26:17.963Z,0.00
2023-03-11T01:26:48.912Z,0.00
2023-03-11T01:27:20.625Z,0.00
2023-03-11T01:27:50.997Z,0.00
2023-03-11T01:28:22.018Z,0.00
2023-03-11T01:28:53.261Z,0.00
2023-03-11T01:29:24.103Z,0.00
2023-03-11T01:29:55.226Z,0.00
2023-03-11T01:30:27.310Z,0.00
2023-03-11T01:30:57.241Z,0.00
2023-03-11T01:31:28.354Z,0.00
2023-03-11T01:31:59.546Z,0.00
2023-03-11T01:32:30.257Z,0.00
2023-03-11T01:33:01.229Z,0.00
2023-03-11T01:33:32.147Z,0.00
2023-03-11T01:34:03.203Z,0.00
2023-03-11T01:34:34.399Z,0.00
2023-03-11T01:35:05.486Z,0.00
2023-03-11T01:35:36.360Z,0.00
2023-03-11T01:36:07.246Z,0.00
2023-03-11T01:36:38.056Z,0.00
2023-03-11T01:37:09.058Z,0.00
2023-03-11T01:37:42.240Z,0.00
2023-03-11T01:38:11.350Z,0.00
2023-03-11T01:38:42.629Z,0.00
2023-03-11T01:39:13.309Z,0.00
2023-03-11T01:39:45.015Z,0.00
2023-03-11T01:40:15.745Z,0.00
2023-03-11T01:40:46.026Z,0.00
2023-03-11T01:41:17.279Z,0.00
2023-03-11T01:41:48.380Z,0.00
2023-03-11T01:42:19.193Z,0.00
2023-03-11T01:42:50.295Z,0.00
2023-03-11T01:43:21.331Z,0.00
2023-03-11T01:43:52.010Z,0.00
2023-03-11T01:44:23.229Z,0.00
2023-03-11T01:44:54.295Z,0.00
2023-03-11T01:45:26.340Z,0.00
2023-03-11T01:45:56.451Z,0.00
2023-03-11T01:46:27.503Z,0.00
2023-03-11T01:46:58.509Z,0.00
2023-03-11T01:47:29.050Z,0.00
2023-03-11T01:48:00.333Z,0.00
2023-03-11T01:48:31.892Z,0.00
2023-03-11T01:49:02.149Z,0.00
2023-03-11T01:49:33.112Z,0.00
2023-03-11T01:50:04.630Z,0.00
2023-03-11T01:50:35.137Z,0.00
2023-03-11T01:51:06.334Z,0.00
2023-03-11T01:51:37.489Z,0.00
2023-03-11T01:52:08.153Z,0.00
2023-03-11T01:52:39.123Z,0.00
2023-03-11T01:53:10.490Z,0.00
2023-03-11T01:53:41.353Z,0.00
2023-03-11T01:54:12.752Z,0.00
2023-03-11T01:54:43.128Z,0.00
2023-03-11T01:55:15.023Z,0.00
2023-03-11T01:55:45.387Z,0.00
2023-03-11T01:56:16.368Z,0.00
2023-03-11T01:56:47.476Z,0.00
2023-03-11T01:57:18.129Z,0.00
2023-03-11T01:57:49.404Z,0.00
2023-03-11T01:58:20.188Z,0.00
2023-03-11T01:58:51.129Z,0.00
2023-03-11T01:59:22.306Z,0.00
2023-03-11T01:59:53.506Z,0.00
2023-03-11T02:00:25.896Z,0.00
2023-03-11T02:00:55.186Z,0.00
2023-03-11T02:01:26.458Z,0.00
2023-03-11T02:01:57.395Z,0.00
2023-03-11T02:02:28.176Z,0.00
2023-03-11T02:02:59.220Z,0.00
2023-03-11T02:03:30.523Z,0.00
2023-03-11T02:04:01.214Z,0.00
2023-03-11T02:04:32.716Z,0.00
2023-03-11T02:05:03.557Z,0.00
2023-03-11T02:05:34.177Z,0.00
2023-03-11T02:06:05.233Z,0.00
2023-03-11T02:06:36.213Z,0.00
2023-03-11T02:07:07.346Z,0.00
2023-03-11T02:07:38.460Z,0.00
2023-03-11T02:08:09.342Z,0.00
2023-03-11T02:08:40.393Z,0.00
2023-03-11T02:09:13.137Z,0.00
2023-03-11T02:09:42.791Z,0.00
2023-03-11T02:10:15.223Z,0.00
2023-03-11T02:10:44.783Z,0.00
2023-03-11T02:11:15.190Z,0.00
2023-03-11T02:11:46.193Z,0.00
2023-03-11T02:12:17.168Z,0.00
2023-03-11T02:12:48.544Z,0.00
2023-03-11T02:13:19.420Z,0.00
2023-03-11T02:13:50.217Z,0.00
2023-03-11T02:14:21.231Z,0.00
2023-03-11T02:14:52.402Z,0.00
2023-03-11T02:15:24.616Z,0.00
2023-03-11T02:15:54.386Z,0.00
2023-03-11T02:16:25.490Z,0.00
2023-03-11T02:16:56.502Z,0.00
2023-03-11T02:17:27.469Z,0.00
2023-03-11T02:17:58.147Z,0.00
2023-03-11T02:18:29.347Z,0.00
2023-03-11T02:19:00.408Z,0.00
2023-03-11T02:19:31.214Z,0.00
2023-03-11T02:20:02.971Z,0.00
2023-03-11T02:20:33.514Z,0.00
2023-03-11T02:21:04.843Z,0.00
2023-03-11T02:21:35.456Z,0.00
2023-03-11T02:22:06.559Z,0.00
2023-03-11T02:22:37.377Z,0.00
2023-03-11T02:23:08.240Z,0.00
2023-03-11T02:23:39.235Z,0.00
2023-03-11T02:24:10.440Z,0.00
2023-03-11T02:24:41.505Z,0.00
2023-03-11T02:25:12.589Z,0.00
2023-03-11T02:25:43.339Z,0.00
2023-03-11T02:26:14.811Z,0.00
2023-03-11T02:26:45.610Z,0.00
2023-03-11T02:27:16.738Z,0.00
2023-03-11T02:27:47.523Z,0.00
2023-03-11T02:28:18.240Z,0.00
2023-03-11T02:28:49.558Z,0.00
2023-03-11T02:29:20.520Z,0.00
2023-03-11T02:29:51.698Z,0.00
2023-03-11T02:30:23.644Z,0.00
2023-03-11T02:30:53.310Z,0.00
2023-03-11T02:31:24.344Z,0.00
2023-03-11T02:31:55.352Z,0.00
2023-03-11T02:32:26.584Z,0.00
2023-03-11T02:32:57.751Z,0.00
2023-03-11T02:33:28.570Z,0.00
2023-03-11T02:33:59.415Z,0.00
2023-03-11T02:34:30.512Z,0.00
2023-03-11T02:35:01.647Z,0.00
2023-03-11T02:35:32.445Z,0.00
2023-03-11T02:36:03.341Z,0.00
2023-03-11T02:36:35.304Z,0.00
2023-03-11T02:37:05.286Z,0.00
2023-03-11T02:37:36.877Z,0.00
2023-03-11T02:38:07.305Z,0.00
2023-03-11T02:38:38.533Z,0.00
2023-03-11T02:39:09.300Z,0.00
2023-03-11T02:39:40.797Z,0.00
2023-03-11T02:40:12.347Z,0.00
2023-03-11T02:40:43.700Z,0.00
2023-03-11T02:41:13.571Z,0.00
2023-03-11T02:41:45.042Z,0.00
2023-03-11T02:42:15.309Z,0.00
2023-03-11T02:42:46.453Z,0.00
2023-03-11T02:43:18.602Z,0.00
2023-03-11T02:43:56.468Z,0.00
2023-03-11T02:44:19.473Z,0.00
2023-03-11T02:44:50.547Z,0.00
2023-03-11T02:45:22.331Z,0.00
2023-03-11T02:45:52.728Z,0.00
2023-03-11T02:46:23.556Z,0.00
2023-03-11T02:46:54.534Z,0.00
2023-03-11T02:47:25.320Z,0.00
2023-03-11T02:47:56.379Z,0.00
2023-03-11T02:48:27.496Z,0.00
2023-03-11T02:48:58.730Z,0.00
2023-03-11T02:49:29.545Z,0.00
2023-03-11T02:50:00.694Z,0.00
2023-03-11T02:50:31.334Z,0.00
2023-03-11T02:51:03.078Z,0.00
2023-03-11T02:51:33.315Z,0.00
2023-03-11T02:52:04.364Z,0.00
2023-03-11T02:52:35.672Z,0.00
2023-03-11T02:53:06.328Z,0.00
2023-03-11T02:53:37.382Z,0.00
2023-03-11T02:54:08.327Z,0.00
2023-03-11T02:54:39.575Z,0.00
2023-03-11T02:55:11.141Z,0.00
2023-03-11T02:55:41.360Z,0.00
2023-03-11T02:56:12.546Z,0.00
2023-03-11T02:56:43.301Z,0.00
2023-03-11T02:57:14.303Z,0.00
2023-03-11T02:57:45.561Z,0.00
2023-03-11T02:58:16.387Z,0.00
2023-03-11T02:58:47.422Z,0.00
2023-03-11T02:59:18.380Z,0.00
2023-03-11T02:59:49.427Z,0.00
2023-03-11T03:00:21.781Z,0.00
2023-03-11T03:00:51.490Z,0.00
2023-03-11T03:01:22.482Z,0.00
2023-03-11T03:01:53.411Z,0.00
2023-03-11T03:02:24.351Z,0.00
2023-03-11T03:02:55.378Z,0.00
2023-03-11T03:03:26.358Z,0.00
2023-03-11T03:03:57.630Z,0.00
2023-03-11T03:04:28.869Z,0.00
2023-03-11T03:04:59.400Z,0.00
2023-03-11T03:05:31.200Z,0.00
2023-03-11T03:06:01.530Z,0.00
2023-03-11T03:06:32.656Z,0.00
2023-03-11T03:07:03.391Z,0.00
2023-03-11T03:07:34.654Z,0.00
2023-03-11T03:08:05.521Z,0.00
2023-03-11T03:08:36.971Z,0.00
2023-03-11T03:09:07.768Z,0.00
2023-03-11T03:09:38.747Z,0.00
2023-03-11T03:10:10.377Z,0.00
2023-03-11T03:10:40.551Z,0.00
2023-03-11T03:11:11.475Z,0.00
2023-03-11T03:11:42.420Z,0.00
2023-03-11T03:12:14.465Z,0.00
2023-03-11T03:12:44.567Z,0.00
2023-03-11T03:13:16.531Z,0.00
2023-03-11T03:13:46.372Z,0.00
2023-03-11T03:14:17.507Z,0.00
2023-03-11T03:14:48.405Z,0.00
2023-03-11T03:15:20.918Z,0.00
2023-03-11T03:15:50.567Z,0.00
2023-03-11T03:16:21.652Z,0.00
2023-03-11T03:16:52.608Z,0.00
2023-03-11T03:17:23.743Z,0.00
2023-03-11T03:17:55.431Z,0.00
2023-03-11T03:18:26.641Z,0.00
2023-03-11T03:18:56.403Z,0.00
2023-03-11T03:19:27.436Z,0.00
2023-03-11T03:19:58.836Z,0.00
2023-03-11T03:20:29.953Z,0.00
2023-03-11T03:21:00.444Z,0.00
2023-03-11T03:21:31.945Z,0.00
2023-03-11T03:22:02.387Z,0.00
2023-03-11T03:22:33.816Z,0.00
2023-03-11T03:23:04.821Z,0.00
2023-03-11T03:23:35.641Z,0.00
2023-03-11T03:24:06.438Z,0.00
2023-03-11T03:24:37.669Z,0.00
2023-03-11T03:25:08.896Z,0.00
2023-03-11T03:25:39.609Z,0.00
2023-03-11T03:26:10.823Z,0.00
2023-03-11T03:26:42.043Z,0.00
2023-03-11T03:27:12.438Z,0.00
2023-03-11T03:27:43.776Z,0.00
2023-03-11T03:28:14.617Z,0.00
2023-03-11T03:28:45.475Z,0.00
2023-03-11T03:29:16.460Z,0.00
2023-03-11T03:29:47.384Z,0.00
2023-03-11T03:30:19.535Z,0.00
2023-03-11T03:30:50.879Z,0.00
2023-03-11T03:31:20.839Z,0.00
2023-03-11T03:31:51.493Z,0.00
2023-03-11T03:32:22.875Z,0.00
2023-03-11T03:32:53.874Z,0.00
2023-03-11T03:33:24.511Z,0.00
2023-03-11T03:33:55.456Z,0.00
2023-03-11T03:34:26.768Z,0.00
2023-03-11T03:34:57.710Z,0.00
2023-03-11T03:35:29.687Z,0.00
2023-03-11T03:35:59.695Z,0.00
2023-03-11T03:36:30.852Z,0.00
2023-03-11T03:37:01.676Z,0.00
2023-03-11T03:37:32.475Z,0.00
2023-03-11T03:38:03.642Z,0.00
2023-03-11T03:38:34.790Z,0.00
2023-03-11T03:39:05.698Z,0.00
2023-03-11T03:39:36.876Z,0.00
2023-03-11T03:40:08.248Z,0.00
2023-03-11T03:40:38.872Z,0.00
2023-03-11T03:41:09.510Z,0.00
2023-03-11T03:41:40.722Z,0.00
2023-03-11T03:42:11.521Z,0.00
2023-03-11T03:42:42.868Z,0.00
2023-03-11T03:43:13.555Z,0.00
2023-03-11T03:43:45.541Z,0.00
2023-03-11T03:44:16.114Z,0.00
2023-03-11T03:44:46.714Z,0.00
2023-03-11T03:45:18.736Z,0.00
2023-03-11T03:45:49.360Z,0.00
2023-03-11T03:46:20.202Z,0.00
2023-03-11T03:46:50.737Z,0.00
2023-03-11T03:47:21.490Z,0.00
2023-03-11T03:47:52.523Z,0.00
2023-03-11T03:48:23.515Z,0.00
2023-03-11T03:48:54.734Z,0.00
2023-03-11T03:49:25.896Z,0.00
2023-03-11T03:49:56.691Z,0.00
2023-03-11T03:50:28.419Z,0.00
2023-03-11T03:50:58.463Z,0.00
2023-03-11T03:51:29.706Z,0.00
2023-03-11T03:52:00.556Z,0.00
2023-03-11T03:52:31.631Z,0.00
2023-03-11T03:53:02.505Z,0.00
2023-03-11T03:53:33.903Z,0.00
2023-03-11T03:54:04.595Z,0.00
2023-03-11T03:54:35.601Z,0.00
2023-03-11T03:55:06.820Z,0.00
2023-03-11T03:55:37.858Z,0.00
2023-03-11T03:56:08.886Z,0.00
2023-03-11T03:56:39.553Z,0.00
2023-03-11T03:57:10.912Z,0.00
2023-03-11T03:57:41.883Z,0.00
2023-03-11T03:58:12.782Z,0.00
2023-03-11T03:58:43.754Z,0.00
2023-03-11T03:59:14.838Z,0.00
2023-03-11T03:59:46.140Z,0.00
2023-03-11T04:00:18.313Z,0.00
2023-03-11T04:00:47.975Z,0.00
2023-03-11T04:01:18.572Z,0.00
2023-03-11T04:01:49.633Z,0.00
2023-03-11T04:02:20.902Z,0.00
2023-03-11T04:02:51.932Z,0.00
2023-03-11T04:03:22.746Z,0.00
2023-03-11T04:03:53.808Z,0.00
2023-03-11T04:04:24.895Z,0.00
2023-03-11T04:04:55.940Z,0.00
2023-03-11T04:05:27.723Z,0.00
2023-03-11T04:05:57.970Z,0.00
2023-03-11T04:06:29.467Z,0.00
2023-03-11T04:06:59.892Z,0.00
2023-03-11T04:07:31.141Z,0.00
2023-03-11T04:08:01.926Z,0.00
2023-03-11T04:08:32.931Z,0.00
2023-03-11T04:09:03.909Z,0.00
2023-03-11T04:09:34.646Z,0.00
2023-03-11T04:10:06.298Z,0.00
2023-03-11T04:10:37.087Z,0.00
2023-03-11T04:11:07.628Z,0.00
2023-03-11T04:11:39.021Z,0.00
2023-03-11T04:12:09.857Z,0.00
2023-03-11T04:12:40.598Z,0.00
2023-03-11T04:13:11.593Z,0.00
2023-03-11T04:13:42.658Z,0.00
2023-03-11T04:14:13.585Z,0.00
2023-03-11T04:14:44.572Z,0.00
2023-03-11T04:15:19.104Z,0.00
2023-03-11T04:15:46.976Z,0.00
2023-03-11T04:16:18.843Z,0.00
2023-03-11T04:16:49.151Z,0.00
2023-03-11T04:17:20.362Z,0.00
2023-03-11T04:17:50.916Z,0.00
2023-03-11T04:18:21.989Z,0.00
2023-03-11T04:18:52.833Z,0.00
2023-03-11T04:19:23.959Z,0.00
2023-03-11T04:19:54.774Z,0.00
2023-03-11T04:20:26.503Z,0.00
2023-03-11T04:20:57.169Z,0.00
2023-03-11T04:21:27.654Z,0.00
2023-03-11T04:21:58.626Z,0.00
2023-03-11T04:22:29.958Z,0.00
2023-03-11T04:23:00.834Z,0.00
2023-03-11T04:23:31.925Z,0.00
2023-03-11T04:24:02.786Z,0.00
2023-03-11T04:24:33.842Z,0.00
2023-03-11T04:25:05.295Z,0.00
2023-03-11T04:25:35.684Z,0.00
2023-03-11T04:26:07.010Z,0.00
2023-03-11T04:26:38.058Z,0.00
2023-03-11T04:27:08.897Z,0.00
2023-03-11T04:27:40.055Z,0.00
2023-03-11T04:28:10.942Z,0.00
2023-03-11T04:28:41.655Z,0.00
2023-03-11T04:29:13.221Z,0.00
2023-03-11T04:29:43.945Z,0.00
2023-03-11T04:30:15.792Z,0.00
2023-03-11T04:30:46.261Z,0.00
2023-03-11T04:31:17.184Z,0.00
2023-03-11T04:31:48.266Z,0.00
2023-03-11T04:32:18.896Z,0.00
2023-03-11T04:32:49.731Z,0.00
2023-03-11T04:33:20.689Z,0.00
2023-03-11T04:33:51.964Z,0.00
2023-03-11T04:34:22.613Z,0.00
2023-03-11T04:34:53.984Z,0.00
2023-03-11T04:35:25.140Z,0.00
2023-03-11T04:35:55.945Z,0.00
2023-03-11T04:36:26.647Z,0.00
2023-03-11T04:36:57.733Z,0.00
2023-03-11T04:37:28.717Z,0.00
2023-03-11T04:37:59.901Z,0.00
2023-03-11T04:38:31.321Z,0.00
2023-03-11T04:39:01.870Z,0.00
2023-03-11T04:39:33.034Z,0.00
2023-03-11T04:40:04.000Z,0.00
2023-03-11T04:40:35.045Z,0.00
2023-03-11T04:41:06.024Z,0.00
2023-03-11T04:41:36.700Z,0.00
2023-03-11T04:42:07.705Z,0.00
2023-03-11T04:42:38.714Z,0.00
2023-03-11T04:43:10.053Z,0.00
2023-03-11T04:43:41.353Z,0.00
2023-03-11T04:44:11.985Z,0.00
2023-03-11T04:44:42.719Z,0.00
2023-03-11T04:45:14.805Z,0.00
2023-03-11T04:45:44.961Z,0.00
2023-03-11T04:46:15.855Z,0.00
2023-03-11T04:46:48.764Z,0.00
2023-03-11T04:47:17.920Z,0.00
2023-03-11T04:47:49.351Z,0.00
2023-03-11T04:48:19.952Z,0.00
2023-03-11T04:48:51.272Z,0.00
2023-03-11T04:49:22.012Z,0.00
2023-03-11T04:49:53.053Z,0.00
2023-03-11T04:50:24.794Z,0.00
2023-03-11T04:50:54.749Z,0.00
2023-03-11T04:51:25.823Z,0.00
2023-03-11T04:51:57.060Z,0.00
2023-03-11T04:52:27.741Z,0.00
2023-03-11T04:52:59.070Z,0.00
2023-03-11T04:53:29.755Z,0.00
2023-03-11T04:54:00.901Z,0.00
2023-03-11T04:54:32.404Z,0.00
2023-03-11T04:55:03.318Z,0.00
2023-03-11T04:55:33.969Z,0.00
2023-03-11T04:56:04.777Z,0.00
2023-03-11T04:56:36.602Z,0.00
2023-03-11T04:57:07.086Z,0.00
2023-03-11T04:57:37.763Z,0.00
2023-03-11T04:58:08.712Z,0.00
2023-03-11T04:58:40.128Z,0.00
2023-03-11T04:59:10.767Z,0.00
2023-03-11T04:59:42.173Z,0.00
2023-03-11T05:00:14.030Z,0.00
2023-03-11T05:00:44.312Z,0.00
2023-03-11T05:01:14.985Z,0.00
2023-03-11T05:01:45.825Z,0.00
2023-03-11T05:02:16.950Z,0.00
2023-03-11T05:02:47.817Z,0.00
2023-03-11T05:03:19.202Z,0.00
2023-03-11T05:03:49.806Z,0.00
2023-03-11T05:04:21.201Z,0.00
2023-03-11T05:04:52.237Z,0.00
2023-03-11T05:05:23.571Z,0.00
2023-03-11T05:05:54.833Z,0.00
2023-03-11T05:06:24.762Z,0.00
2023-03-11T05:06:56.069Z,0.00
2023-03-11T05:07:26.941Z,0.00
2023-03-11T05:07:58.529Z,0.00
2023-03-11T05:08:28.734Z,0.00
2023-03-11T05:09:00.133Z,0.00
2023-03-11T05:09:30.765Z,0.00
2023-03-11T05:10:02.140Z,0.00
2023-03-11T05:10:33.052Z,0.00
2023-03-11T05:11:04.432Z,0.00
2023-03-11T05:11:34.957Z,0.00
2023-03-11T05:12:06.018Z,0.00
2023-03-11T05:12:37.245Z,0.00
2023-03-11T05:13:07.982Z,0.00
2023-03-11T05:13:39.107Z,0.00
2023-03-11T05:14:09.978Z,0.00
2023-03-11T05:14:41.230Z,0.00
2023-03-11T05:15:13.123Z,0.00
2023-03-11T05:15:42.966Z,0.00
2023-03-11T05:16:14.187Z,0.00
2023-03-11T05:16:45.175Z,0.00
2023-03-11T05:17:16.133Z,0.00
2023-03-11T05:17:46.895Z,0.00
2023-03-11T05:18:18.679Z,0.00
2023-03-11T05:18:49.191Z,0.00
2023-03-11T05:19:21.074Z,0.00
2023-03-11T05:19:50.795Z,0.00
2023-03-11T05:20:23.083Z,0.00
2023-03-11T05:20:53.304Z,0.00
2023-03-11T05:21:23.819Z,0.00
2023-03-11T05:21:55.175Z,0.00
2023-03-11T05:22:26.292Z,0.00
2023-03-11T05:22:57.178Z,0.00
2023-03-11T05:23:28.249Z,0.00
2023-03-11T05:23:59.179Z,0.00
2023-03-11T05:24:29.969Z,0.00
2023-03-11T05:25:01.438Z,0.00
2023-03-11T05:25:31.836Z,0.00
2023-03-11T05:26:03.134Z,0.00
2023-03-11T05:26:34.427Z,0.00
2023-03-11T05:27:05.316Z,0.00
2023-03-11T05:27:36.211Z,0.00
2023-03-11T05:28:07.284Z,0.00
2023-03-11T05:28:38.090Z,0.00
2023-03-11T05:29:08.856Z,0.00
2023-03-11T05:29:40.109Z,0.00
2023-03-11T05:30:11.900Z,0.00
2023-03-11T05:30:42.151Z,0.00
2023-03-11T05:31:13.290Z,0.00
2023-03-11T05:31:44.306Z,0.00
2023-03-11T05:32:14.924Z,0.00
2023-03-11T05:32:45.928Z,0.00
2023-03-11T05:33:17.243Z,0.00
2023-03-11T05:33:48.173Z,0.00
2023-03-11T05:34:18.813Z,0.00
2023-03-11T05:34:49.846Z,0.00
2023-03-11T05:35:21.717Z,0.00
2023-03-11T05:35:52.355Z,0.00
2023-03-11T05:36:23.299Z,0.00
2023-03-11T05:36:54.554Z,0.36
2023-03-11T05:37:25.028Z,0.85
2023-03-11T05:37:55.824Z,0.36
2023-03-11T05:38:27.142Z,1.71
2023-03-11T05:38:57.853Z,0.36
2023-03-11T05:39:29.242Z,1.22
2023-03-11T05:40:00.625Z,1.22
2023-03-11T05:40:30.943Z,0.85
2023-03-11T05:41:02.123Z,1.22
2023-03-11T05:41:33.598Z,0.85
2023-03-11T05:42:04.280Z,0.36
2023-03-11T05:42:34.981Z,1.71
2023-03-11T05:43:06.438Z,1.22
2023-03-11T05:43:37.317Z,1.22
2023-03-11T05:44:08.356Z,0.85
2023-03-11T05:44:39.352Z,2.08
2023-03-11T05:45:11.829Z,1.71
2023-03-11T05:45:41.148Z,1.22
2023-03-11T05:46:12.020Z,1.71
2023-03-11T05:46:43.530Z,2.08
2023-03-11T05:47:14.669Z,2.08
2023-03-11T05:47:45.405Z,1.71
2023-03-11T05:48:15.976Z,2.08
2023-03-11T05:48:47.246Z,2.57
2023-03-11T05:49:18.040Z,2.08
2023-03-11T05:49:50.284Z,2.57
2023-03-11T05:50:20.816Z,2.57
2023-03-11T05:50:52.753Z,3.43
2023-03-11T05:51:22.328Z,2.94
2023-03-11T05:51:55.668Z,3.43
2023-03-11T05:52:24.352Z,3.43
2023-03-11T05:52:55.301Z,4.28
2023-03-11T05:53:26.367Z,3.43
2023-03-11T05:53:57.232Z,4.28
2023-03-11T05:54:28.275Z,3.43
2023-03-11T05:54:59.084Z,5.14
2023-03-11T05:55:30.571Z,4.77
2023-03-11T05:56:01.422Z,4.77
2023-03-11T05:56:32.394Z,5.14
2023-03-11T05:57:03.221Z,5.14
2023-03-11T05:57:34.662Z,5.14
2023-03-11T05:58:05.481Z,6.48
2023-03-11T05:58:36.658Z,5.99
2023-03-11T05:59:07.238Z,6.48
2023-03-11T05:59:38.414Z,7.34
2023-03-11T06:00:10.035Z,7.34
2023-03-11T06:00:40.120Z,7.34
2023-03-11T06:01:11.100Z,8.19
2023-03-11T06:01:42.538Z,7.70
2023-03-11T06:02:13.439Z,8.19
2023-03-11T06:02:44.553Z,9.05
2023-03-11T06:03:15.068Z,8.19
2023-03-11T06:03:46.320Z,9.05
2023-03-11T06:04:17.655Z,9.54
2023-03-11T06:04:48.609Z,9.91
2023-03-11T06:05:20.051Z,9.91
2023-03-11T06:05:50.079Z,9.91
2023-03-11T06:06:21.349Z,9.54
2023-03-11T06:06:52.401Z,10.39
2023-03-11T06:07:23.041Z,9.91
2023-03-11T06:07:54.045Z,10.39
2023-03-11T06:08:42.363Z,11.25
2023-03-11T06:08:56.318Z,11.62
2023-03-11T06:09:27.341Z,11.25
2023-03-11T06:09:58.416Z,11.62
2023-03-11T06:10:29.706Z,12.48
2023-03-11T06:11:00.413Z,12.48
2023-03-11T06:11:31.309Z,12.48
2023-03-11T06:12:02.486Z,13.33
2023-03-11T06:12:33.389Z,13.33
2023-03-11T06:13:04.253Z,14.31
2023-03-11T06:13:35.078Z,13.82
2023-03-11T06:14:06.125Z,15.17
2023-03-11T06:14:37.480Z,15.53
2023-03-11T06:15:09.116Z,16.88
2023-03-11T06:15:39.279Z,19.45
2023-03-11T06:16:10.457Z,20.31
2023-03-11T06:16:41.717Z,20.80
2023-03-11T06:17:12.145Z,19.08
2023-03-11T06:17:43.118Z,18.60
2023-03-11T06:18:14.544Z,18.60
2023-03-11T06:18:45.488Z,19.08
2023-03-11T06:19:16.045Z,19.45
2023-03-11T06:19:47.224Z,19.08
2023-03-11T06:20:18.947Z,20.31
2023-03-11T06:20:49.676Z,21.16
2023-03-11T06:21:21.461Z,21.16
2023-03-11T06:21:51.160Z,23.36
2023-03-11T06:22:22.400Z,22.87
2023-03-11T06:22:53.627Z,23.36
2023-03-11T06:23:24.491Z,22.51
2023-03-11T06:23:55.153Z,22.02
2023-03-11T06:24:26.580Z,21.16
2023-03-11T06:24:57.171Z,21.65
2023-03-11T06:25:28.645Z,21.65
2023-03-11T06:25:59.397Z,21.65
2023-03-11T06:26:30.837Z,21.65
2023-03-11T06:27:01.140Z,22.87
2023-03-11T06:27:32.371Z,25.07
2023-03-11T06:28:03.423Z,26.42
2023-03-11T06:28:34.455Z,28.99
2023-03-11T06:29:05.509Z,29.85
2023-03-11T06:29:36.406Z,29.48
2023-03-11T06:30:08.350Z,29.48
2023-03-11T06:30:38.239Z,31.19
2023-03-11T06:31:09.399Z,35.48
2023-03-11T06:31:40.767Z,39.88
2023-03-11T06:32:11.452Z,43.80
2023-03-11T06:32:42.436Z,44.16
2023-03-11T06:33:13.374Z,41.10
2023-03-11T06:33:44.424Z,37.19
2023-03-11T06:34:15.455Z,35.48
2023-03-11T06:34:46.520Z,35.48
2023-03-11T06:35:17.729Z,39.02
2023-03-11T06:35:48.281Z,42.45
2023-03-11T06:36:19.244Z,42.94
2023-03-11T06:36:50.519Z,44.65
2023-03-11T06:37:21.515Z,47.71
2023-03-11T06:37:52.198Z,46.36
2023-03-11T06:38:23.400Z,46.36
2023-03-11T06:38:54.586Z,47.22
2023-03-11T06:39:25.146Z,47.71
2023-03-11T06:39:56.162Z,48.93
2023-03-11T06:40:27.581Z,51.14
2023-03-11T06:40:58.749Z,50.65
2023-03-11T06:41:29.529Z,50.65
2023-03-11T06:42:00.469Z,49.42
2023-03-11T06:42:31.595Z,46.36
2023-03-11T06:43:02.562Z,45.02
2023-03-11T06:43:33.165Z,42.94
2023-03-11T06:44:04.448Z,41.96
2023-03-11T06:44:35.500Z,41.96
2023-03-11T06:45:07.770Z,43.31
2023-03-11T06:45:37.839Z,45.02
2023-03-11T06:46:08.564Z,45.51
2023-03-11T06:46:39.597Z,44.65
2023-03-11T06:47:10.535Z,43.31
2023-03-11T06:47:41.819Z,42.94
2023-03-11T06:48:12.171Z,41.96
2023-03-11T06:48:43.190Z,41.96
2023-03-11T06:49:14.454Z,41.96
2023-03-11T06:49:45.576Z,41.59
2023-03-11T06:50:16.680Z,40.73
2023-03-11T06:50:48.530Z,39.88